sensor_id;sensor_type;location;lat;lon;timestamp;P1;durP1;ratioP1;P2;durP2;ratioP2
7377;SDS011;3730;50.856;12.776;2022-08-19T00:01:40;34.80;;;31.20;;
7377;SDS011;3730;50.856;12.776;2022-08-19T00:04:07;38.07;;;33.07;;
7377;SDS011;3730;50.856;12.776;2022-08-19T00:06:34;38.53;;;34.43;;
7377;SDS011;3730;50.856;12.776;2022-08-19T00:09:00;35.30;;;31.50;;
7377;SDS011;3730;50.856;12.776;2022-08-19T00:11:26;39.93;;;34.73;;
7377;SDS011;3730;50.856;12.776;2022-08-19T00:13:53;37.57;;;33.50;;
7377;SDS011;3730;50.856;12.776;2022-08-19T00:16:19;36.90;;;32.90;;
7377;SDS011;3730;50.856;12.776;2022-08-19T00:18:45;39.57;;;34.70;;
7377;SDS011;3730;50.856;12.776;2022-08-19T00:21:12;44.80;;;37.17;;
7377;SDS011;3730;50.856;12.776;2022-08-19T00:23:38;39.83;;;34.57;;
7377;SDS011;3730;50.856;12.776;2022-08-19T00:26:04;41.40;;;36.40;;
7377;SDS011;3730;50.856;12.776;2022-08-19T00:28:31;36.77;;;32.67;;
7377;SDS011;3730;50.856;12.776;2022-08-19T00:30:58;45.97;;;38.93;;
7377;SDS011;3730;50.856;12.776;2022-08-19T00:33:24;44.07;;;37.07;;
7377;SDS011;3730;50.856;12.776;2022-08-19T00:35:50;43.77;;;37.20;;
7377;SDS011;3730;50.856;12.776;2022-08-19T00:38:16;38.20;;;34.17;;
7377;SDS011;3730;50.856;12.776;2022-08-19T00:40:43;41.53;;;36.27;;
7377;SDS011;3730;50.856;12.776;2022-08-19T00:43:12;37.47;;;33.47;;
7377;SDS011;3730;50.856;12.776;2022-08-19T00:45:38;41.97;;;36.07;;
7377;SDS011;3730;50.856;12.776;2022-08-19T00:48:07;44.47;;;36.30;;
7377;SDS011;3730;50.856;12.776;2022-08-19T00:50:33;42.30;;;36.63;;
7377;SDS011;3730;50.856;12.776;2022-08-19T00:53:00;34.37;;;30.83;;
7377;SDS011;3730;50.856;12.776;2022-08-19T00:55:28;35.93;;;32.23;;
7377;SDS011;3730;50.856;12.776;2022-08-19T00:57:55;33.73;;;30.13;;
7377;SDS011;3730;50.856;12.776;2022-08-19T01:00:22;36.33;;;32.30;;
7377;SDS011;3730;50.856;12.776;2022-08-19T01:02:48;35.27;;;31.47;;
7377;SDS011;3730;50.856;12.776;2022-08-19T01:05:16;36.40;;;32.60;;
7377;SDS011;3730;50.856;12.776;2022-08-19T01:07:43;37.87;;;33.87;;
7377;SDS011;3730;50.856;12.776;2022-08-19T01:10:14;30.30;;;27.23;;
7377;SDS011;3730;50.856;12.776;2022-08-19T01:12:41;29.03;;;26.13;;
7377;SDS011;3730;50.856;12.776;2022-08-19T01:15:08;26.70;;;24.10;;
7377;SDS011;3730;50.856;12.776;2022-08-19T01:17:36;33.30;;;29.70;;
7377;SDS011;3730;50.856;12.776;2022-08-19T01:20:05;29.50;;;26.40;;
7377;SDS011;3730;50.856;12.776;2022-08-19T01:22:44;32.30;;;28.83;;
7377;SDS011;3730;50.856;12.776;2022-08-19T01:25:14;31.77;;;28.43;;
7377;SDS011;3730;50.856;12.776;2022-08-19T01:27:44;25.60;;;23.10;;
7377;SDS011;3730;50.856;12.776;2022-08-19T01:30:14;28.57;;;25.60;;
7377;SDS011;3730;50.856;12.776;2022-08-19T01:32:42;33.67;;;30.03;;
7377;SDS011;3730;50.856;12.776;2022-08-19T01:35:09;27.40;;;24.60;;
7377;SDS011;3730;50.856;12.776;2022-08-19T01:37:44;28.43;;;25.53;;
7377;SDS011;3730;50.856;12.776;2022-08-19T01:40:14;28.17;;;25.43;;
7377;SDS011;3730;50.856;12.776;2022-08-19T01:42:41;26.07;;;23.47;;
7377;SDS011;3730;50.856;12.776;2022-08-19T01:45:08;29.93;;;26.87;;
7377;SDS011;3730;50.856;12.776;2022-08-19T01:47:37;30.27;;;27.20;;
7377;SDS011;3730;50.856;12.776;2022-08-19T01:50:04;27.43;;;24.60;;
7377;SDS011;3730;50.856;12.776;2022-08-19T01:52:31;28.07;;;25.37;;
7377;SDS011;3730;50.856;12.776;2022-08-19T01:54:56;25.93;;;23.33;;
7377;SDS011;3730;50.856;12.776;2022-08-19T01:57:22;29.13;;;26.30;;
7377;SDS011;3730;50.856;12.776;2022-08-19T01:59:48;27.37;;;24.60;;
7377;SDS011;3730;50.856;12.776;2022-08-19T02:02:15;28.43;;;25.43;;
7377;SDS011;3730;50.856;12.776;2022-08-19T02:04:40;26.53;;;23.83;;
7377;SDS011;3730;50.856;12.776;2022-08-19T02:07:06;26.63;;;23.97;;
7377;SDS011;3730;50.856;12.776;2022-08-19T02:09:33;32.17;;;28.87;;
7377;SDS011;3730;50.856;12.776;2022-08-19T02:11:59;32.40;;;28.90;;
7377;SDS011;3730;50.856;12.776;2022-08-19T02:14:25;41.63;;;33.63;;
7377;SDS011;3730;50.856;12.776;2022-08-19T02:16:51;39.23;;;33.73;;
7377;SDS011;3730;50.856;12.776;2022-08-19T02:19:16;31.97;;;28.67;;
7377;SDS011;3730;50.856;12.776;2022-08-19T02:21:42;36.40;;;32.47;;
7377;SDS011;3730;50.856;12.776;2022-08-19T02:24:08;46.33;;;34.40;;
7377;SDS011;3730;50.856;12.776;2022-08-19T02:26:34;32.00;;;28.70;;
7377;SDS011;3730;50.856;12.776;2022-08-19T02:29:00;33.87;;;30.27;;
7377;SDS011;3730;50.856;12.776;2022-08-19T02:31:26;31.83;;;28.33;;
7377;SDS011;3730;50.856;12.776;2022-08-19T02:33:53;36.23;;;32.37;;
7377;SDS011;3730;50.856;12.776;2022-08-19T02:36:20;35.30;;;31.50;;
7377;SDS011;3730;50.856;12.776;2022-08-19T02:38:47;36.13;;;32.13;;
7377;SDS011;3730;50.856;12.776;2022-08-19T02:41:17;36.17;;;32.23;;
7377;SDS011;3730;50.856;12.776;2022-08-19T02:43:44;34.00;;;30.30;;
7377;SDS011;3730;50.856;12.776;2022-08-19T02:46:11;31.43;;;28.13;;
7377;SDS011;3730;50.856;12.776;2022-08-19T02:48:49;29.70;;;26.60;;
7377;SDS011;3730;50.856;12.776;2022-08-19T02:51:19;33.13;;;29.60;;
7377;SDS011;3730;50.856;12.776;2022-08-19T02:53:45;71.87;;;39.17;;
7377;SDS011;3730;50.856;12.776;2022-08-19T02:56:12;80.77;;;38.30;;
7377;SDS011;3730;50.856;12.776;2022-08-19T02:58:38;32.57;;;29.07;;
7377;SDS011;3730;50.856;12.776;2022-08-19T03:01:05;33.57;;;29.97;;
7377;SDS011;3730;50.856;12.776;2022-08-19T03:03:31;33.90;;;30.17;;
7377;SDS011;3730;50.856;12.776;2022-08-19T03:06:30;33.97;;;29.10;;
7377;SDS011;3730;50.856;12.776;2022-08-19T03:08:49;31.50;;;28.10;;
7377;SDS011;3730;50.856;12.776;2022-08-19T03:11:17;32.87;;;29.37;;
7377;SDS011;3730;50.856;12.776;2022-08-19T03:13:44;35.60;;;31.60;;
7377;SDS011;3730;50.856;12.776;2022-08-19T03:16:11;52.60;;;34.17;;
7377;SDS011;3730;50.856;12.776;2022-08-19T03:18:37;41.53;;;33.53;;
7377;SDS011;3730;50.856;12.776;2022-08-19T03:21:03;50.40;;;36.60;;
7377;SDS011;3730;50.856;12.776;2022-08-19T03:23:29;36.30;;;31.97;;
7377;SDS011;3730;50.856;12.776;2022-08-19T03:25:55;50.90;;;36.50;;
7377;SDS011;3730;50.856;12.776;2022-08-19T03:28:21;33.50;;;29.90;;
7377;SDS011;3730;50.856;12.776;2022-08-19T03:31:03;41.53;;;35.43;;
7377;SDS011;3730;50.856;12.776;2022-08-19T03:33:30;39.33;;;33.83;;
7377;SDS011;3730;50.856;12.776;2022-08-19T03:36:16;46.67;;;34.80;;
7377;SDS011;3730;50.856;12.776;2022-08-19T03:38:45;44.37;;;33.87;;
7377;SDS011;3730;50.856;12.776;2022-08-19T03:41:13;84.53;;;38.67;;
7377;SDS011;3730;50.856;12.776;2022-08-19T03:43:40;89.20;;;40.33;;
7377;SDS011;3730;50.856;12.776;2022-08-19T03:46:08;44.53;;;35.57;;
7377;SDS011;3730;50.856;12.776;2022-08-19T03:48:34;175.97;;;41.77;;
7377;SDS011;3730;50.856;12.776;2022-08-19T03:51:01;44.27;;;36.20;;
7377;SDS011;3730;50.856;12.776;2022-08-19T03:53:29;48.17;;;37.73;;
7377;SDS011;3730;50.856;12.776;2022-08-19T03:55:55;44.93;;;35.73;;
7377;SDS011;3730;50.856;12.776;2022-08-19T03:58:23;46.63;;;36.57;;
7377;SDS011;3730;50.856;12.776;2022-08-19T04:00:49;49.13;;;35.47;;
7377;SDS011;3730;50.856;12.776;2022-08-19T04:03:15;70.07;;;39.00;;
7377;SDS011;3730;50.856;12.776;2022-08-19T04:05:44;113.17;;;39.67;;
7377;SDS011;3730;50.856;12.776;2022-08-19T04:08:10;64.97;;;37.00;;
7377;SDS011;3730;50.856;12.776;2022-08-19T04:10:36;71.47;;;39.67;;
7377;SDS011;3730;50.856;12.776;2022-08-19T04:13:03;269.97;;;44.07;;
7377;SDS011;3730;50.856;12.776;2022-08-19T04:15:31;81.70;;;36.63;;
7377;SDS011;3730;50.856;12.776;2022-08-19T04:18:03;79.20;;;35.67;;
7377;SDS011;3730;50.856;12.776;2022-08-19T04:20:31;133.30;;;37.67;;
7377;SDS011;3730;50.856;12.776;2022-08-19T04:22:59;160.20;;;40.77;;
7377;SDS011;3730;50.856;12.776;2022-08-19T04:25:25;51.23;;;33.30;;
7377;SDS011;3730;50.856;12.776;2022-08-19T04:27:51;317.70;;;43.47;;
7377;SDS011;3730;50.856;12.776;2022-08-19T04:30:18;108.57;;;40.87;;
7377;SDS011;3730;50.856;12.776;2022-08-19T04:32:44;190.50;;;38.17;;
7377;SDS011;3730;50.856;12.776;2022-08-19T04:35:10;271.17;;;42.63;;
7377;SDS011;3730;50.856;12.776;2022-08-19T04:37:36;108.43;;;38.10;;
7377;SDS011;3730;50.856;12.776;2022-08-19T04:40:03;113.17;;;36.90;;
7377;SDS011;3730;50.856;12.776;2022-08-19T04:42:48;215.30;;;42.97;;
7377;SDS011;3730;50.856;12.776;2022-08-19T04:45:14;82.20;;;38.77;;
7377;SDS011;3730;50.856;12.776;2022-08-19T04:47:41;80.00;;;39.57;;
7377;SDS011;3730;50.856;12.776;2022-08-19T04:50:09;53.03;;;33.53;;
7377;SDS011;3730;50.856;12.776;2022-08-19T04:52:36;81.37;;;36.27;;
7377;SDS011;3730;50.856;12.776;2022-08-19T04:55:02;60.53;;;37.07;;
7377;SDS011;3730;50.856;12.776;2022-08-19T04:57:30;55.33;;;36.93;;
7377;SDS011;3730;50.856;12.776;2022-08-19T04:59:56;44.87;;;33.33;;
7377;SDS011;3730;50.856;12.776;2022-08-19T05:02:24;41.83;;;32.43;;
7377;SDS011;3730;50.856;12.776;2022-08-19T05:04:51;56.87;;;31.30;;
7377;SDS011;3730;50.856;12.776;2022-08-19T05:07:17;62.13;;;37.30;;
7377;SDS011;3730;50.856;12.776;2022-08-19T05:09:43;49.10;;;33.63;;
7377;SDS011;3730;50.856;12.776;2022-08-19T05:12:10;36.90;;;28.93;;
7377;SDS011;3730;50.856;12.776;2022-08-19T05:14:36;33.63;;;27.50;;
7377;SDS011;3730;50.856;12.776;2022-08-19T05:17:02;38.80;;;29.10;;
7377;SDS011;3730;50.856;12.776;2022-08-19T05:19:28;36.90;;;29.93;;
7377;SDS011;3730;50.856;12.776;2022-08-19T05:22:12;114.67;;;37.37;;
7377;SDS011;3730;50.856;12.776;2022-08-19T05:24:57;63.43;;;36.47;;
7377;SDS011;3730;50.856;12.776;2022-08-19T05:27:23;40.30;;;31.47;;
7377;SDS011;3730;50.856;12.776;2022-08-19T05:29:49;121.97;;;41.20;;
7377;SDS011;3730;50.856;12.776;2022-08-19T05:32:16;97.27;;;36.07;;
7377;SDS011;3730;50.856;12.776;2022-08-19T05:34:42;193.53;;;43.90;;
7377;SDS011;3730;50.856;12.776;2022-08-19T05:37:08;100.23;;;43.50;;
7377;SDS011;3730;50.856;12.776;2022-08-19T05:39:35;41.20;;;33.27;;
7377;SDS011;3730;50.856;12.776;2022-08-19T05:42:02;55.53;;;37.40;;
7377;SDS011;3730;50.856;12.776;2022-08-19T05:44:31;47.90;;;35.37;;
7377;SDS011;3730;50.856;12.776;2022-08-19T05:46:59;39.03;;;33.43;;
7377;SDS011;3730;50.856;12.776;2022-08-19T05:49:25;47.33;;;34.67;;
7377;SDS011;3730;50.856;12.776;2022-08-19T05:51:51;48.80;;;34.30;;
7377;SDS011;3730;50.856;12.776;2022-08-19T05:54:18;55.87;;;34.27;;
7377;SDS011;3730;50.856;12.776;2022-08-19T05:56:45;33.97;;;30.07;;
7377;SDS011;3730;50.856;12.776;2022-08-19T05:59:12;39.37;;;30.73;;
7377;SDS011;3730;50.856;12.776;2022-08-19T06:01:40;39.03;;;29.07;;
7377;SDS011;3730;50.856;12.776;2022-08-19T06:04:07;48.33;;;32.33;;
7377;SDS011;3730;50.856;12.776;2022-08-19T06:06:34;39.80;;;29.70;;
7377;SDS011;3730;50.856;12.776;2022-08-19T06:09:01;35.13;;;30.07;;
7377;SDS011;3730;50.856;12.776;2022-08-19T06:11:37;30.83;;;26.93;;
7377;SDS011;3730;50.856;12.776;2022-08-19T06:14:05;33.87;;;27.93;;
7377;SDS011;3730;50.856;12.776;2022-08-19T06:16:33;34.33;;;27.67;;
7377;SDS011;3730;50.856;12.776;2022-08-19T06:19:00;44.03;;;29.33;;
7377;SDS011;3730;50.856;12.776;2022-08-19T06:21:27;37.80;;;30.03;;
7377;SDS011;3730;50.856;12.776;2022-08-19T06:23:54;31.17;;;26.40;;
7377;SDS011;3730;50.856;12.776;2022-08-19T06:26:20;35.83;;;27.73;;
7377;SDS011;3730;50.856;12.776;2022-08-19T06:28:47;33.17;;;27.20;;
7377;SDS011;3730;50.856;12.776;2022-08-19T06:31:13;29.87;;;25.83;;
7377;SDS011;3730;50.856;12.776;2022-08-19T06:33:41;44.20;;;29.53;;
7377;SDS011;3730;50.856;12.776;2022-08-19T06:36:07;38.50;;;29.67;;
7377;SDS011;3730;50.856;12.776;2022-08-19T06:38:33;29.00;;;23.40;;
7377;SDS011;3730;50.856;12.776;2022-08-19T06:41:00;32.83;;;26.43;;
7377;SDS011;3730;50.856;12.776;2022-08-19T06:43:26;31.47;;;24.47;;
7377;SDS011;3730;50.856;12.776;2022-08-19T06:45:52;26.03;;;23.23;;
7377;SDS011;3730;50.856;12.776;2022-08-19T06:48:18;48.97;;;30.57;;
7377;SDS011;3730;50.856;12.776;2022-08-19T06:50:44;61.87;;;31.47;;
7377;SDS011;3730;50.856;12.776;2022-08-19T06:53:10;70.23;;;33.27;;
7377;SDS011;3730;50.856;12.776;2022-08-19T06:55:36;45.37;;;29.63;;
7377;SDS011;3730;50.856;12.776;2022-08-19T06:58:03;60.33;;;33.40;;
7377;SDS011;3730;50.856;12.776;2022-08-19T07:00:29;173.00;;;38.77;;
7377;SDS011;3730;50.856;12.776;2022-08-19T07:02:56;146.37;;;40.67;;
7377;SDS011;3730;50.856;12.776;2022-08-19T07:05:23;92.40;;;40.10;;
7377;SDS011;3730;50.856;12.776;2022-08-19T07:07:50;84.40;;;38.60;;
7377;SDS011;3730;50.856;12.776;2022-08-19T07:10:16;85.57;;;38.53;;
7377;SDS011;3730;50.856;12.776;2022-08-19T07:12:42;65.07;;;38.87;;
7377;SDS011;3730;50.856;12.776;2022-08-19T07:15:09;69.57;;;43.17;;
7377;SDS011;3730;50.856;12.776;2022-08-19T07:17:35;48.97;;;34.77;;
7377;SDS011;3730;50.856;12.776;2022-08-19T07:20:04;47.77;;;35.27;;
7377;SDS011;3730;50.856;12.776;2022-08-19T07:22:32;57.30;;;40.00;;
7377;SDS011;3730;50.856;12.776;2022-08-19T07:24:58;50.33;;;36.33;;
7377;SDS011;3730;50.856;12.776;2022-08-19T07:27:25;43.30;;;34.00;;
7377;SDS011;3730;50.856;12.776;2022-08-19T07:29:51;49.27;;;36.47;;
7377;SDS011;3730;50.856;12.776;2022-08-19T07:32:17;46.50;;;35.33;;
7377;SDS011;3730;50.856;12.776;2022-08-19T07:34:43;44.37;;;33.50;;
7377;SDS011;3730;50.856;12.776;2022-08-19T07:37:10;42.57;;;34.37;;
7377;SDS011;3730;50.856;12.776;2022-08-19T07:39:37;43.00;;;32.97;;
7377;SDS011;3730;50.856;12.776;2022-08-19T07:42:06;43.30;;;34.47;;
7377;SDS011;3730;50.856;12.776;2022-08-19T07:44:33;40.43;;;33.83;;
7377;SDS011;3730;50.856;12.776;2022-08-19T07:46:59;35.27;;;30.27;;
7377;SDS011;3730;50.856;12.776;2022-08-19T07:49:25;30.80;;;27.60;;
7377;SDS011;3730;50.856;12.776;2022-08-19T07:51:58;38.53;;;32.83;;
7377;SDS011;3730;50.856;12.776;2022-08-19T07:54:26;38.90;;;33.17;;
7377;SDS011;3730;50.856;12.776;2022-08-19T07:56:53;43.83;;;34.97;;
7377;SDS011;3730;50.856;12.776;2022-08-19T07:59:19;47.73;;;37.30;;
7377;SDS011;3730;50.856;12.776;2022-08-19T08:01:47;48.30;;;40.07;;
7377;SDS011;3730;50.856;12.776;2022-08-19T08:04:17;52.77;;;39.63;;
7377;SDS011;3730;50.856;12.776;2022-08-19T08:07:03;52.30;;;40.57;;
7377;SDS011;3730;50.856;12.776;2022-08-19T08:09:48;46.33;;;38.83;;
7377;SDS011;3730;50.856;12.776;2022-08-19T08:12:20;58.87;;;45.40;;
7377;SDS011;3730;50.856;12.776;2022-08-19T08:14:50;57.83;;;44.67;;
7377;SDS011;3730;50.856;12.776;2022-08-19T08:17:18;52.80;;;42.70;;
7377;SDS011;3730;50.856;12.776;2022-08-19T08:19:46;57.13;;;45.27;;
7377;SDS011;3730;50.856;12.776;2022-08-19T08:22:16;49.20;;;41.33;;
7377;SDS011;3730;50.856;12.776;2022-08-19T08:25:03;56.00;;;44.10;;
7377;SDS011;3730;50.856;12.776;2022-08-19T08:27:29;58.43;;;45.17;;
7377;SDS011;3730;50.856;12.776;2022-08-19T08:29:56;43.27;;;37.77;;
7377;SDS011;3730;50.856;12.776;2022-08-19T08:32:22;41.07;;;35.60;;
7377;SDS011;3730;50.856;12.776;2022-08-19T08:34:48;42.80;;;36.27;;
7377;SDS011;3730;50.856;12.776;2022-08-19T08:37:14;57.63;;;45.53;;
7377;SDS011;3730;50.856;12.776;2022-08-19T08:39:40;58.27;;;46.57;;
7377;SDS011;3730;50.856;12.776;2022-08-19T08:42:16;53.27;;;43.47;;
7377;SDS011;3730;50.856;12.776;2022-08-19T08:44:55;54.17;;;43.50;;
7377;SDS011;3730;50.856;12.776;2022-08-19T08:47:23;63.60;;;48.87;;
7377;SDS011;3730;50.856;12.776;2022-08-19T08:49:55;72.87;;;52.07;;
7377;SDS011;3730;50.856;12.776;2022-08-19T08:52:24;64.73;;;47.93;;
7377;SDS011;3730;50.856;12.776;2022-08-19T08:54:52;50.77;;;41.73;;
7377;SDS011;3730;50.856;12.776;2022-08-19T08:59:53;58.73;;;47.13;;
7377;SDS011;3730;50.856;12.776;2022-08-19T09:02:20;65.43;;;48.13;;
7377;SDS011;3730;50.856;12.776;2022-08-19T09:04:46;68.17;;;49.03;;
7377;SDS011;3730;50.856;12.776;2022-08-19T09:07:21;61.73;;;47.87;;
7377;SDS011;3730;50.856;12.776;2022-08-19T09:09:50;49.60;;;41.10;;
7377;SDS011;3730;50.856;12.776;2022-08-19T09:14:47;58.23;;;46.03;;
7377;SDS011;3730;50.856;12.776;2022-08-19T09:17:15;70.00;;;51.00;;
7377;SDS011;3730;50.856;12.776;2022-08-19T09:19:49;68.73;;;52.60;;
7377;SDS011;3730;50.856;12.776;2022-08-19T09:22:15;52.90;;;43.50;;
7377;SDS011;3730;50.856;12.776;2022-08-19T09:24:41;61.53;;;47.17;;
7377;SDS011;3730;50.856;12.776;2022-08-19T09:27:07;59.57;;;44.77;;
7377;SDS011;3730;50.856;12.776;2022-08-19T09:29:33;62.17;;;47.83;;
7377;SDS011;3730;50.856;12.776;2022-08-19T09:31:59;80.40;;;53.63;;
7377;SDS011;3730;50.856;12.776;2022-08-19T09:34:26;72.07;;;49.53;;
7377;SDS011;3730;50.856;12.776;2022-08-19T09:36:54;69.03;;;49.10;;
7377;SDS011;3730;50.856;12.776;2022-08-19T09:39:23;60.93;;;44.70;;
7377;SDS011;3730;50.856;12.776;2022-08-19T09:41:49;75.57;;;51.73;;
7377;SDS011;3730;50.856;12.776;2022-08-19T09:44:15;65.50;;;46.00;;
7377;SDS011;3730;50.856;12.776;2022-08-19T09:46:41;62.27;;;44.07;;
7377;SDS011;3730;50.856;12.776;2022-08-19T09:49:07;62.50;;;44.90;;
7377;SDS011;3730;50.856;12.776;2022-08-19T09:51:33;63.07;;;44.20;;
7377;SDS011;3730;50.856;12.776;2022-08-19T09:54:00;79.53;;;51.77;;
7377;SDS011;3730;50.856;12.776;2022-08-19T09:56:27;72.70;;;49.07;;
7377;SDS011;3730;50.856;12.776;2022-08-19T09:58:53;74.30;;;48.33;;
7377;SDS011;3730;50.856;12.776;2022-08-19T10:01:21;94.47;;;55.57;;
7377;SDS011;3730;50.856;12.776;2022-08-19T10:03:48;75.27;;;50.83;;
7377;SDS011;3730;50.856;12.776;2022-08-19T10:06:16;83.73;;;55.30;;
7377;SDS011;3730;50.856;12.776;2022-08-19T10:08:43;82.63;;;53.57;;
7377;SDS011;3730;50.856;12.776;2022-08-19T10:11:09;71.60;;;49.20;;
7377;SDS011;3730;50.856;12.776;2022-08-19T10:13:36;70.97;;;49.40;;
7377;SDS011;3730;50.856;12.776;2022-08-19T10:16:04;73.20;;;50.97;;
7377;SDS011;3730;50.856;12.776;2022-08-19T10:18:35;76.40;;;51.10;;
7377;SDS011;3730;50.856;12.776;2022-08-19T10:21:08;58.60;;;43.67;;
7377;SDS011;3730;50.856;12.776;2022-08-19T10:23:36;55.27;;;43.13;;
7377;SDS011;3730;50.856;12.776;2022-08-19T10:26:03;55.03;;;39.83;;
7377;SDS011;3730;50.856;12.776;2022-08-19T10:28:30;53.37;;;42.63;;
7377;SDS011;3730;50.856;12.776;2022-08-19T10:30:56;71.43;;;50.47;;
7377;SDS011;3730;50.856;12.776;2022-08-19T10:33:24;74.40;;;53.07;;
7377;SDS011;3730;50.856;12.776;2022-08-19T10:35:58;68.43;;;50.33;;
7377;SDS011;3730;50.856;12.776;2022-08-19T10:38:24;99.30;;;63.27;;
7377;SDS011;3730;50.856;12.776;2022-08-19T10:40:50;91.50;;;59.47;;
7377;SDS011;3730;50.856;12.776;2022-08-19T10:43:18;76.93;;;54.53;;
7377;SDS011;3730;50.856;12.776;2022-08-19T10:45:48;75.80;;;54.53;;
7377;SDS011;3730;50.856;12.776;2022-08-19T10:48:14;79.20;;;57.27;;
7377;SDS011;3730;50.856;12.776;2022-08-19T10:50:40;91.87;;;61.00;;
7377;SDS011;3730;50.856;12.776;2022-08-19T10:53:25;87.60;;;58.10;;
7377;SDS011;3730;50.856;12.776;2022-08-19T10:55:51;98.13;;;62.33;;
7377;SDS011;3730;50.856;12.776;2022-08-19T10:58:35;76.17;;;53.13;;
7377;SDS011;3730;50.856;12.776;2022-08-19T11:01:01;71.30;;;51.17;;
7377;SDS011;3730;50.856;12.776;2022-08-19T11:03:27;86.07;;;56.60;;
7377;SDS011;3730;50.856;12.776;2022-08-19T11:06:02;99.37;;;59.17;;
7377;SDS011;3730;50.856;12.776;2022-08-19T11:08:28;82.33;;;56.00;;
7377;SDS011;3730;50.856;12.776;2022-08-19T11:10:58;72.87;;;50.33;;
7377;SDS011;3730;50.856;12.776;2022-08-19T11:13:26;76.87;;;50.73;;
7377;SDS011;3730;50.856;12.776;2022-08-19T11:16:00;110.20;;;48.77;;
7377;SDS011;3730;50.856;12.776;2022-08-19T11:18:26;104.23;;;54.07;;
7377;SDS011;3730;50.856;12.776;2022-08-19T11:20:53;63.87;;;47.33;;
7377;SDS011;3730;50.856;12.776;2022-08-19T11:23:19;104.17;;;52.63;;
7377;SDS011;3730;50.856;12.776;2022-08-19T11:25:46;86.30;;;52.13;;
7377;SDS011;3730;50.856;12.776;2022-08-19T11:28:12;170.33;;;58.23;;
7377;SDS011;3730;50.856;12.776;2022-08-19T11:30:38;99.80;;;58.87;;
7377;SDS011;3730;50.856;12.776;2022-08-19T11:33:04;88.57;;;55.17;;
7377;SDS011;3730;50.856;12.776;2022-08-19T11:35:30;103.07;;;57.83;;
7377;SDS011;3730;50.856;12.776;2022-08-19T11:37:57;69.43;;;49.53;;
7377;SDS011;3730;50.856;12.776;2022-08-19T11:40:26;101.43;;;56.90;;
7377;SDS011;3730;50.856;12.776;2022-08-19T11:42:52;106.03;;;62.87;;
7377;SDS011;3730;50.856;12.776;2022-08-19T11:45:25;103.97;;;60.63;;
7377;SDS011;3730;50.856;12.776;2022-08-19T11:47:51;115.00;;;63.60;;
7377;SDS011;3730;50.856;12.776;2022-08-19T11:50:17;97.90;;;61.40;;
7377;SDS011;3730;50.856;12.776;2022-08-19T11:52:43;100.00;;;66.00;;
7377;SDS011;3730;50.856;12.776;2022-08-19T11:55:10;102.63;;;63.43;;
7377;SDS011;3730;50.856;12.776;2022-08-19T11:57:36;92.03;;;57.43;;
7377;SDS011;3730;50.856;12.776;2022-08-19T12:00:03;95.07;;;62.27;;
7377;SDS011;3730;50.856;12.776;2022-08-19T12:02:31;93.70;;;60.03;;
7377;SDS011;3730;50.856;12.776;2022-08-19T12:04:57;95.87;;;60.10;;
7377;SDS011;3730;50.856;12.776;2022-08-19T12:07:24;89.87;;;59.13;;
7377;SDS011;3730;50.856;12.776;2022-08-19T12:09:50;92.37;;;60.10;;
7377;SDS011;3730;50.856;12.776;2022-08-19T12:12:17;105.13;;;63.73;;
7377;SDS011;3730;50.856;12.776;2022-08-19T12:14:43;103.13;;;65.90;;
7377;SDS011;3730;50.856;12.776;2022-08-19T12:17:09;102.67;;;64.13;;
7377;SDS011;3730;50.856;12.776;2022-08-19T12:19:36;99.07;;;62.17;;
7377;SDS011;3730;50.856;12.776;2022-08-19T12:22:04;97.20;;;62.77;;
7377;SDS011;3730;50.856;12.776;2022-08-19T12:24:32;70.70;;;51.63;;
7377;SDS011;3730;50.856;12.776;2022-08-19T12:26:59;92.30;;;58.37;;
7377;SDS011;3730;50.856;12.776;2022-08-19T12:29:26;76.70;;;54.67;;
7377;SDS011;3730;50.856;12.776;2022-08-19T12:31:54;85.73;;;58.33;;
7377;SDS011;3730;50.856;12.776;2022-08-19T12:34:25;80.33;;;57.20;;
7377;SDS011;3730;50.856;12.776;2022-08-19T12:36:54;89.60;;;58.57;;
7377;SDS011;3730;50.856;12.776;2022-08-19T12:39:21;95.03;;;61.57;;
7377;SDS011;3730;50.856;12.776;2022-08-19T12:41:47;84.87;;;59.93;;
7377;SDS011;3730;50.856;12.776;2022-08-19T12:44:14;84.93;;;56.30;;
7377;SDS011;3730;50.856;12.776;2022-08-19T12:46:40;74.23;;;53.40;;
7377;SDS011;3730;50.856;12.776;2022-08-19T12:49:06;82.17;;;56.87;;
7377;SDS011;3730;50.856;12.776;2022-08-19T12:51:32;73.43;;;53.27;;
7377;SDS011;3730;50.856;12.776;2022-08-19T12:53:59;75.13;;;53.93;;
7377;SDS011;3730;50.856;12.776;2022-08-19T12:56:26;92.07;;;60.00;;
7377;SDS011;3730;50.856;12.776;2022-08-19T12:58:52;76.40;;;52.00;;
7377;SDS011;3730;50.856;12.776;2022-08-19T13:01:19;63.43;;;49.27;;
7377;SDS011;3730;50.856;12.776;2022-08-19T13:03:46;75.27;;;53.23;;
7377;SDS011;3730;50.856;12.776;2022-08-19T13:06:12;69.63;;;50.80;;
7377;SDS011;3730;50.856;12.776;2022-08-19T13:08:39;76.37;;;52.20;;
7377;SDS011;3730;50.856;12.776;2022-08-19T13:11:08;77.40;;;53.83;;
7377;SDS011;3730;50.856;12.776;2022-08-19T13:13:37;80.10;;;55.13;;
7377;SDS011;3730;50.856;12.776;2022-08-19T13:16:06;82.67;;;55.07;;
7377;SDS011;3730;50.856;12.776;2022-08-19T13:18:32;77.20;;;52.20;;
7377;SDS011;3730;50.856;12.776;2022-08-19T13:21:02;69.07;;;50.67;;
7377;SDS011;3730;50.856;12.776;2022-08-19T13:23:28;72.83;;;49.83;;
7377;SDS011;3730;50.856;12.776;2022-08-19T13:25:58;75.97;;;50.60;;
7377;SDS011;3730;50.856;12.776;2022-08-19T13:28:25;78.30;;;50.93;;
7377;SDS011;3730;50.856;12.776;2022-08-19T13:30:51;66.30;;;48.57;;
7377;SDS011;3730;50.856;12.776;2022-08-19T13:33:36;67.47;;;46.70;;
7377;SDS011;3730;50.856;12.776;2022-08-19T13:36:02;72.57;;;49.20;;
7377;SDS011;3730;50.856;12.776;2022-08-19T13:38:32;65.03;;;47.07;;
7377;SDS011;3730;50.856;12.776;2022-08-19T13:41:03;60.27;;;45.40;;
7377;SDS011;3730;50.856;12.776;2022-08-19T13:43:29;71.80;;;48.90;;
7377;SDS011;3730;50.856;12.776;2022-08-19T13:45:55;68.90;;;49.13;;
7377;SDS011;3730;50.856;12.776;2022-08-19T13:48:21;66.13;;;48.37;;
7377;SDS011;3730;50.856;12.776;2022-08-19T13:50:48;66.13;;;50.03;;
7377;SDS011;3730;50.856;12.776;2022-08-19T13:53:15;77.10;;;50.50;;
7377;SDS011;3730;50.856;12.776;2022-08-19T13:55:43;63.07;;;45.53;;
7377;SDS011;3730;50.856;12.776;2022-08-19T13:58:10;70.43;;;50.30;;
7377;SDS011;3730;50.856;12.776;2022-08-19T14:00:38;61.47;;;46.13;;
7377;SDS011;3730;50.856;12.776;2022-08-19T14:03:05;61.53;;;47.97;;
7377;SDS011;3730;50.856;12.776;2022-08-19T14:05:31;61.13;;;45.93;;
7377;SDS011;3730;50.856;12.776;2022-08-19T14:07:57;68.43;;;49.60;;
7377;SDS011;3730;50.856;12.776;2022-08-19T14:10:24;65.33;;;48.90;;
7377;SDS011;3730;50.856;12.776;2022-08-19T14:12:54;70.67;;;53.37;;
7377;SDS011;3730;50.856;12.776;2022-08-19T14:15:20;71.17;;;50.87;;
7377;SDS011;3730;50.856;12.776;2022-08-19T14:17:48;56.97;;;43.83;;
7377;SDS011;3730;50.856;12.776;2022-08-19T14:20:14;62.60;;;47.93;;
7377;SDS011;3730;50.856;12.776;2022-08-19T14:22:41;58.07;;;45.30;;
7377;SDS011;3730;50.856;12.776;2022-08-19T14:25:09;52.27;;;42.30;;
7377;SDS011;3730;50.856;12.776;2022-08-19T14:27:37;50.27;;;41.37;;
7377;SDS011;3730;50.856;12.776;2022-08-19T14:30:04;49.00;;;40.33;;
7377;SDS011;3730;50.856;12.776;2022-08-19T14:32:31;56.47;;;44.40;;
7377;SDS011;3730;50.856;12.776;2022-08-19T14:34:57;52.87;;;39.90;;
7377;SDS011;3730;50.856;12.776;2022-08-19T14:37:23;50.73;;;39.03;;
7377;SDS011;3730;50.856;12.776;2022-08-19T14:39:50;51.87;;;40.43;;
7377;SDS011;3730;50.856;12.776;2022-08-19T14:42:16;52.77;;;39.33;;